sensor_id;sensor_type;location;lat;lon;timestamp;temperature;humidity
64634;DHT22;51043;52.406;9.690;2023-06-14T00:00:05;15.50;66.20
64634;DHT22;51043;52.406;9.690;2023-06-14T00:02:36;15.50;66.80
64634;DHT22;51043;52.406;9.690;2023-06-14T00:05:04;15.50;65.80
64634;DHT22;51043;52.406;9.690;2023-06-14T00:07:37;15.40;66.40
64634;DHT22;51043;52.406;9.690;2023-06-14T00:10:10;15.40;66.40
64634;DHT22;51043;52.406;9.690;2023-06-14T00:12:38;15.40;66.50
64634;DHT22;51043;52.406;9.690;2023-06-14T00:15:07;15.40;67.00
64634;DHT22;51043;52.406;9.690;2023-06-14T00:17:38;15.50;66.60
64634;DHT22;51043;52.406;9.690;2023-06-14T00:20:08;15.50;67.30
64634;DHT22;51043;52.406;9.690;2023-06-14T00:22:38;15.40;66.90
64634;DHT22;51043;52.406;9.690;2023-06-14T00:25:06;15.40;67.40
64634;DHT22;51043;52.406;9.690;2023-06-14T00:27:41;15.30;67.50
64634;DHT22;51043;52.406;9.690;2023-06-14T00:30:11;15.30;68.30
64634;DHT22;51043;52.406;9.690;2023-06-14T00:32:41;15.20;68.20
64634;DHT22;51043;52.406;9.690;2023-06-14T00:35:09;15.30;68.20
64634;DHT22;51043;52.406;9.690;2023-06-14T00:37:37;15.20;69.40
64634;DHT22;51043;52.406;9.690;2023-06-14T00:40:06;15.10;69.20
64634;DHT22;51043;52.406;9.690;2023-06-14T00:42:37;15.10;69.30
64634;DHT22;51043;52.406;9.690;2023-06-14T00:45:09;15.10;70.60
64634;DHT22;51043;52.406;9.690;2023-06-14T00:47:37;15.00;70.10
64634;DHT22;51043;52.406;9.690;2023-06-14T00:50:09;15.10;70.30
64634;DHT22;51043;52.406;9.690;2023-06-14T00:52:38;15.10;70.30
64634;DHT22;51043;52.406;9.690;2023-06-14T00:55:07;15.20;70.30
64634;DHT22;51043;52.406;9.690;2023-06-14T00:57:36;15.20;70.50
64634;DHT22;51043;52.406;9.690;2023-06-14T01:00:08;15.20;70.80
64634;DHT22;51043;52.406;9.690;2023-06-14T01:02:36;15.20;71.50
64634;DHT22;51043;52.406;9.690;2023-06-14T01:05:08;15.20;71.70
64634;DHT22;51043;52.406;9.690;2023-06-14T01:07:47;15.20;72.60
64634;DHT22;51043;52.406;9.690;2023-06-14T01:10:35;15.10;72.80
64634;DHT22;51043;52.406;9.690;2023-06-14T01:13:08;15.10;73.50
64634;DHT22;51043;52.406;9.690;2023-06-14T01:15:43;15.10;74.20
64634;DHT22;51043;52.406;9.690;2023-06-14T01:18:11;15.00;74.60
64634;DHT22;51043;52.406;9.690;2023-06-14T01:20:46;15.00;75.60
64634;DHT22;51043;52.406;9.690;2023-06-14T01:23:19;14.90;76.30
64634;DHT22;51043;52.406;9.690;2023-06-14T01:25:47;14.70;77.40
64634;DHT22;51043;52.406;9.690;2023-06-14T01:28:20;14.70;78.20
64634;DHT22;51043;52.406;9.690;2023-06-14T01:30:50;14.60;79.60
64634;DHT22;51043;52.406;9.690;2023-06-14T01:33:22;14.50;80.60
64634;DHT22;51043;52.406;9.690;2023-06-14T01:35:52;14.60;82.00
64634;DHT22;51043;52.406;9.690;2023-06-14T01:38:24;14.50;82.80
64634;DHT22;51043;52.406;9.690;2023-06-14T01:40:54;14.40;83.90
64634;DHT22;51043;52.406;9.690;2023-06-14T01:43:25;14.30;87.00
64634;DHT22;51043;52.406;9.690;2023-06-14T01:45:54;14.30;87.90
64634;DHT22;51043;52.406;9.690;2023-06-14T01:48:23;14.20;90.80
64634;DHT22;51043;52.406;9.690;2023-06-14T01:50:54;14.10;92.40
64634;DHT22;51043;52.406;9.690;2023-06-14T01:53:23;14.00;93.10
64634;DHT22;51043;52.406;9.690;2023-06-14T01:55:54;14.00;93.70
64634;DHT22;51043;52.406;9.690;2023-06-14T01:58:23;13.90;95.20
64634;DHT22;51043;52.406;9.690;2023-06-14T02:00:52;13.90;96.90
64634;DHT22;51043;52.406;9.690;2023-06-14T02:03:22;13.90;97.60
64634;DHT22;51043;52.406;9.690;2023-06-14T02:05:55;13.90;98.80
64634;DHT22;51043;52.406;9.690;2023-06-14T02:08:24;13.90;99.90
64634;DHT22;51043;52.406;9.690;2023-06-14T02:10:52;13.80;99.90
64634;DHT22;51043;52.406;9.690;2023-06-14T02:13:21;13.80;99.90
64634;DHT22;51043;52.406;9.690;2023-06-14T02:15:55;13.80;99.90
64634;DHT22;51043;52.406;9.690;2023-06-14T02:18:24;13.80;99.90
64634;DHT22;51043;52.406;9.690;2023-06-14T02:20:58;13.70;99.90
64634;DHT22;51043;52.406;9.690;2023-06-14T02:23:27;13.70;99.90
64634;DHT22;51043;52.406;9.690;2023-06-14T02:25:58;13.80;99.90
64634;DHT22;51043;52.406;9.690;2023-06-14T02:28:26;13.70;99.90
64634;DHT22;51043;52.406;9.690;2023-06-14T02:30:54;13.70;99.90
64634;DHT22;51043;52.406;9.690;2023-06-14T02:33:22;13.70;99.90
64634;DHT22;51043;52.406;9.690;2023-06-14T02:35:52;13.70;99.90
64634;DHT22;51043;52.406;9.690;2023-06-14T02:38:20;13.70;99.90
64634;DHT22;51043;52.406;9.690;2023-06-14T02:40:52;13.70;99.90
64634;DHT22;51043;52.406;9.690;2023-06-14T02:43:20;13.70;99.90
64634;DHT22;51043;52.406;9.690;2023-06-14T02:45:48;13.60;99.90
64634;DHT22;51043;52.406;9.690;2023-06-14T02:48:24;13.60;99.90
64634;DHT22;51043;52.406;9.690;2023-06-14T02:50:55;13.50;99.90
64634;DHT22;51043;52.406;9.690;2023-06-14T02:53:24;13.40;99.90
64634;DHT22;51043;52.406;9.690;2023-06-14T02:55:54;13.30;99.90
64634;DHT22;51043;52.406;9.690;2023-06-14T02:58:24;13.30;99.90
64634;DHT22;51043;52.406;9.690;2023-06-14T03:00:55;13.20;99.90
64634;DHT22;51043;52.406;9.690;2023-06-14T03:03:23;13.10;99.90
64634;DHT22;51043;52.406;9.690;2023-06-14T03:05:55;13.00;99.90
64634;DHT22;51043;52.406;9.690;2023-06-14T03:08:26;13.10;99.90
64634;DHT22;51043;52.406;9.690;2023-06-14T03:11:00;13.10;99.90
64634;DHT22;51043;52.406;9.690;2023-06-14T03:13:29;13.10;99.90
64634;DHT22;51043;52.406;9.690;2023-06-14T03:16:00;13.00;99.90
64634;DHT22;51043;52.406;9.690;2023-06-14T03:18:32;13.00;99.90
64634;DHT22;51043;52.406;9.690;2023-06-14T03:21:04;13.00;99.90
64634;DHT22;51043;52.406;9.690;2023-06-14T03:23:37;13.00;99.90
64634;DHT22;51043;52.406;9.690;2023-06-14T03:26:07;13.00;99.90
64634;DHT22;51043;52.406;9.690;2023-06-14T03:28:35;13.00;99.90
64634;DHT22;51043;52.406;9.690;2023-06-14T03:31:03;13.00;99.90
64634;DHT22;51043;52.406;9.690;2023-06-14T03:33:32;12.90;99.90
64634;DHT22;51043;52.406;9.690;2023-06-14T03:36:00;12.90;99.90
64634;DHT22;51043;52.406;9.690;2023-06-14T03:38:29;13.00;99.90
64634;DHT22;51043;52.406;9.690;2023-06-14T03:40:57;12.90;99.90
64634;DHT22;51043;52.406;9.690;2023-06-14T03:43:27;12.90;99.90
64634;DHT22;51043;52.406;9.690;2023-06-14T03:45:57;12.90;99.90
64634;DHT22;51043;52.406;9.690;2023-06-14T03:48:25;13.00;99.90
64634;DHT22;51043;52.406;9.690;2023-06-14T03:50:54;13.10;99.90
64634;DHT22;51043;52.406;9.690;2023-06-14T03:53:26;13.20;99.90
64634;DHT22;51043;52.406;9.690;2023-06-14T03:55:56;13.20;99.90
64634;DHT22;51043;52.406;9.690;2023-06-14T03:58:34;13.30;99.90
64634;DHT22;51043;52.406;9.690;2023-06-14T04:01:02;13.30;99.90
64634;DHT22;51043;52.406;9.690;2023-06-14T04:03:31;13.40;99.90
64634;DHT22;51043;52.406;9.690;2023-06-14T04:06:01;13.50;99.90
64634;DHT22;51043;52.406;9.690;2023-06-14T04:08:29;13.60;99.90
64634;DHT22;51043;52.406;9.690;2023-06-14T04:11:01;13.70;99.90
64634;DHT22;51043;52.406;9.690;2023-06-14T04:13:29;13.80;99.90
64634;DHT22;51043;52.406;9.690;2023-06-14T04:16:01;13.80;99.90
64634;DHT22;51043;52.406;9.690;2023-06-14T04:18:33;13.90;99.90
64634;DHT22;51043;52.406;9.690;2023-06-14T04:21:01;14.00;99.90
64634;DHT22;51043;52.406;9.690;2023-06-14T04:23:30;14.00;99.90
64634;DHT22;51043;52.406;9.690;2023-06-14T04:26:00;14.00;99.90
64634;DHT22;51043;52.406;9.690;2023-06-14T04:28:29;14.10;99.90
64634;DHT22;51043;52.406;9.690;2023-06-14T04:31:01;14.20;99.90
64634;DHT22;51043;52.406;9.690;2023-06-14T04:33:32;14.30;99.90
64634;DHT22;51043;52.406;9.690;2023-06-14T04:36:04;14.40;99.90
64634;DHT22;51043;52.406;9.690;2023-06-14T04:38:32;14.40;99.90
64634;DHT22;51043;52.406;9.690;2023-06-14T04:41:01;14.60;99.90
64634;DHT22;51043;52.406;9.690;2023-06-14T04:43:29;14.60;99.90
64634;DHT22;51043;52.406;9.690;2023-06-14T04:45:58;14.80;99.90
64634;DHT22;51043;52.406;9.690;2023-06-14T04:48:31;14.90;99.90
64634;DHT22;51043;52.406;9.690;2023-06-14T04:50:59;15.00;99.90
64634;DHT22;51043;52.406;9.690;2023-06-14T04:53:27;15.10;99.90
64634;DHT22;51043;52.406;9.690;2023-06-14T04:55:56;15.30;99.90
64634;DHT22;51043;52.406;9.690;2023-06-14T04:58:25;15.50;99.90
64634;DHT22;51043;52.406;9.690;2023-06-14T05:00:57;15.60;99.90
64634;DHT22;51043;52.406;9.690;2023-06-14T05:03:28;15.70;99.90
64634;DHT22;51043;52.406;9.690;2023-06-14T05:05:58;15.80;99.90
64634;DHT22;51043;52.406;9.690;2023-06-14T05:08:27;15.90;99.90
64634;DHT22;51043;52.406;9.690;2023-06-14T05:10:56;16.10;99.90
64634;DHT22;51043;52.406;9.690;2023-06-14T05:13:33;16.20;99.90
64634;DHT22;51043;52.406;9.690;2023-06-14T05:16:02;16.30;99.90
64634;DHT22;51043;52.406;9.690;2023-06-14T05:18:35;16.40;99.90
64634;DHT22;51043;52.406;9.690;2023-06-14T05:21:05;16.50;99.90
64634;DHT22;51043;52.406;9.690;2023-06-14T05:23:33;16.60;99.90
64634;DHT22;51043;52.406;9.690;2023-06-14T05:26:01;16.70;99.90
64634;DHT22;51043;52.406;9.690;2023-06-14T05:28:32;16.80;99.90
64634;DHT22;51043;52.406;9.690;2023-06-14T05:31:00;17.00;99.90
64634;DHT22;51043;52.406;9.690;2023-06-14T05:33:30;17.20;99.90
64634;DHT22;51043;52.406;9.690;2023-06-14T05:35:58;17.40;99.90
64634;DHT22;51043;52.406;9.690;2023-06-14T05:38:28;17.40;99.90
64634;DHT22;51043;52.406;9.690;2023-06-14T05:45:00;17.90;99.90
64634;DHT22;51043;52.406;9.690;2023-06-14T05:47:28;18.10;99.90
64634;DHT22;51043;52.406;9.690;2023-06-14T05:49:57;18.30;99.90
64634;DHT22;51043;52.406;9.690;2023-06-14T05:52:25;18.20;99.90
64634;DHT22;51043;52.406;9.690;2023-06-14T05:54:54;18.40;99.90
64634;DHT22;51043;52.406;9.690;2023-06-14T05:57:23;18.50;99.90
64634;DHT22;51043;52.406;9.690;2023-06-14T05:59:51;18.60;99.90
64634;DHT22;51043;52.406;9.690;2023-06-14T06:02:19;18.60;99.90
64634;DHT22;51043;52.406;9.690;2023-06-14T06:04:47;18.70;99.90
64634;DHT22;51043;52.406;9.690;2023-06-14T06:07:16;18.70;99.90
64634;DHT22;51043;52.406;9.690;2023-06-14T06:09:47;18.70;99.90
64634;DHT22;51043;52.406;9.690;2023-06-14T06:12:19;18.80;99.90
64634;DHT22;51043;52.406;9.690;2023-06-14T06:14:47;18.80;99.90
64634;DHT22;51043;52.406;9.690;2023-06-14T06:17:15;19.00;99.90
64634;DHT22;51043;52.406;9.690;2023-06-14T06:19:43;19.10;99.90
64634;DHT22;51043;52.406;9.690;2023-06-14T06:22:12;19.30;99.90
64634;DHT22;51043;52.406;9.690;2023-06-14T06:24:41;19.30;99.90
64634;DHT22;51043;52.406;9.690;2023-06-14T06:27:09;19.40;99.90
64634;DHT22;51043;52.406;9.690;2023-06-14T06:29:42;19.50;99.90
64634;DHT22;51043;52.406;9.690;2023-06-14T06:32:10;19.50;99.80
64634;DHT22;51043;52.406;9.690;2023-06-14T06:34:38;19.50;99.90
64634;DHT22;51043;52.406;9.690;2023-06-14T06:37:06;19.50;99.60
64634;DHT22;51043;52.406;9.690;2023-06-14T06:39:35;19.50;98.50
64634;DHT22;51043;52.406;9.690;2023-06-14T06:42:04;19.60;98.70
64634;DHT22;51043;52.406;9.690;2023-06-14T06:44:36;19.70;98.90
64634;DHT22;51043;52.406;9.690;2023-06-14T06:47:06;19.80;99.20
64634;DHT22;51043;52.406;9.690;2023-06-14T06:49:34;20.00;97.60
64634;DHT22;51043;52.406;9.690;2023-06-14T06:52:04;20.10;96.80
64634;DHT22;51043;52.406;9.690;2023-06-14T06:54:33;20.10;96.90
64634;DHT22;51043;52.406;9.690;2023-06-14T06:57:02;20.20;96.00
64634;DHT22;51043;52.406;9.690;2023-06-14T06:59:30;20.20;97.60
64634;DHT22;51043;52.406;9.690;2023-06-14T07:01:59;20.30;96.20
64634;DHT22;51043;52.406;9.690;2023-06-14T07:04:28;20.40;95.60
64634;DHT22;51043;52.406;9.690;2023-06-14T07:06:58;20.40;94.90
64634;DHT22;51043;52.406;9.690;2023-06-14T07:09:27;20.50;94.10
64634;DHT22;51043;52.406;9.690;2023-06-14T07:11:57;20.50;94.80
64634;DHT22;51043;52.406;9.690;2023-06-14T07:14:28;20.60;93.30
64634;DHT22;51043;52.406;9.690;2023-06-14T07:16:57;20.70;93.30
64634;DHT22;51043;52.406;9.690;2023-06-14T07:19:25;20.90;93.20
64634;DHT22;51043;52.406;9.690;2023-06-14T07:21:55;21.00;92.30
64634;DHT22;51043;52.406;9.690;2023-06-14T07:24:25;21.20;91.30
64634;DHT22;51043;52.406;9.690;2023-06-14T07:26:58;21.30;91.10
64634;DHT22;51043;52.406;9.690;2023-06-14T07:29:26;21.20;88.60
64634;DHT22;51043;52.406;9.690;2023-06-14T07:31:54;21.30;89.40
64634;DHT22;51043;52.406;9.690;2023-06-14T07:34:25;21.30;88.80
64634;DHT22;51043;52.406;9.690;2023-06-14T07:36:55;21.40;90.20
64634;DHT22;51043;52.406;9.690;2023-06-14T07:39:25;21.60;88.50
64634;DHT22;51043;52.406;9.690;2023-06-14T07:41:54;21.80;86.80
64634;DHT22;51043;52.406;9.690;2023-06-14T07:44:23;22.30;86.60
64634;DHT22;51043;52.406;9.690;2023-06-14T07:46:51;23.00;83.90
64634;DHT22;51043;52.406;9.690;2023-06-14T07:49:20;23.50;78.80
64634;DHT22;51043;52.406;9.690;2023-06-14T07:51:48;24.30;74.20
64634;DHT22;51043;52.406;9.690;2023-06-14T07:54:19;25.00;70.50
64634;DHT22;51043;52.406;9.690;2023-06-14T07:56:52;25.40;67.60
64634;DHT22;51043;52.406;9.690;2023-06-14T07:59:20;25.70;64.40
64634;DHT22;51043;52.406;9.690;2023-06-14T08:01:49;26.30;64.00
64634;DHT22;51043;52.406;9.690;2023-06-14T08:04:18;26.40;58.50
64634;DHT22;51043;52.406;9.690;2023-06-14T08:06:47;26.00;58.90
64634;DHT22;51043;52.406;9.690;2023-06-14T08:09:15;26.10;58.70
64634;DHT22;51043;52.406;9.690;2023-06-14T08:11:44;26.10;59.50
64634;DHT22;51043;52.406;9.690;2023-06-14T08:14:14;26.80;59.30
64634;DHT22;51043;52.406;9.690;2023-06-14T08:16:43;27.70;56.60
64634;DHT22;51043;52.406;9.690;2023-06-14T08:19:11;28.20;54.20
64634;DHT22;51043;52.406;9.690;2023-06-14T08:21:39;27.80;53.80
64634;DHT22;51043;52.406;9.690;2023-06-14T08:24:07;28.00;52.60
64634;DHT22;51043;52.406;9.690;2023-06-14T08:26:36;28.50;53.20
64634;DHT22;51043;52.406;9.690;2023-06-14T08:29:06;28.70;52.30
64634;DHT22;51043;52.406;9.690;2023-06-14T08:31:37;29.10;52.20
64634;DHT22;51043;52.406;9.690;2023-06-14T08:34:05;29.70;50.00
64634;DHT22;51043;52.406;9.690;2023-06-14T08:36:40;30.30;50.30
64634;DHT22;51043;52.406;9.690;2023-06-14T08:39:09;31.10;47.60
64634;DHT22;51043;52.406;9.690;2023-06-14T08:41:37;31.40;45.80
64634;DHT22;51043;52.406;9.690;2023-06-14T08:44:07;31.30;46.00
64634;DHT22;51043;52.406;9.690;2023-06-14T08:46:37;30.70;46.40
64634;DHT22;51043;52.406;9.690;2023-06-14T08:49:05;30.20;46.00
64634;DHT22;51043;52.406;9.690;2023-06-14T08:51:36;29.90;46.60
64634;DHT22;51043;52.406;9.690;2023-06-14T08:54:05;29.40;47.40
64634;DHT22;51043;52.406;9.690;2023-06-14T08:56:33;30.00;46.40
64634;DHT22;51043;52.406;9.690;2023-06-14T08:59:04;30.30;46.00
64634;DHT22;51043;52.406;9.690;2023-06-14T09:01:37;30.80;45.70
64634;DHT22;51043;52.406;9.690;2023-06-14T09:04:05;31.50;43.60
64634;DHT22;51043;52.406;9.690;2023-06-14T09:06:37;32.40;43.00
64634;DHT22;51043;52.406;9.690;2023-06-14T09:09:05;33.00;41.30
64634;DHT22;51043;52.406;9.690;2023-06-14T09:11:35;33.00;40.80
64634;DHT22;51043;52.406;9.690;2023-06-14T09:14:03;32.90;43.50
64634;DHT22;51043;52.406;9.690;2023-06-14T09:16:32;33.40;40.60
64634;DHT22;51043;52.406;9.690;2023-06-14T09:19:03;33.60;39.80
64634;DHT22;51043;52.406;9.690;2023-06-14T09:21:34;34.20;39.80
64634;DHT22;51043;52.406;9.690;2023-06-14T09:24:05;34.50;38.70
64634;DHT22;51043;52.406;9.690;2023-06-14T09:26:33;34.10;37.80
64634;DHT22;51043;52.406;9.690;2023-06-14T09:29:05;34.80;37.60
64634;DHT22;51043;52.406;9.690;2023-06-14T09:31:35;34.70;36.70
64634;DHT22;51043;52.406;9.690;2023-06-14T09:34:05;35.40;36.20
64634;DHT22;51043;52.406;9.690;2023-06-14T09:36:34;35.50;34.20
64634;DHT22;51043;52.406;9.690;2023-06-14T09:39:03;35.40;35.60
64634;DHT22;51043;52.406;9.690;2023-06-14T09:41:33;34.80;34.30
64634;DHT22;51043;52.406;9.690;2023-06-14T09:44:05;35.00;36.20
64634;DHT22;51043;52.406;9.690;2023-06-14T09:46:36;34.60;34.40
64634;DHT22;51043;52.406;9.690;2023-06-14T09:49:06;34.20;34.80
64634;DHT22;51043;52.406;9.690;2023-06-14T09:51:37;34.40;37.70
64634;DHT22;51043;52.406;9.690;2023-06-14T09:54:14;34.50;34.50
64634;DHT22;51043;52.406;9.690;2023-06-14T09:56:44;34.30;33.90
64634;DHT22;51043;52.406;9.690;2023-06-14T09:59:13;33.20;36.00
64634;DHT22;51043;52.406;9.690;2023-06-14T10:01:43;32.80;35.60
64634;DHT22;51043;52.406;9.690;2023-06-14T10:04:13;32.70;36.70
64634;DHT22;51043;52.406;9.690;2023-06-14T10:06:45;32.90;36.20
64634;DHT22;51043;52.406;9.690;2023-06-14T10:09:13;32.90;36.80
64634;DHT22;51043;52.406;9.690;2023-06-14T10:11:42;32.60;36.50
64634;DHT22;51043;52.406;9.690;2023-06-14T10:14:12;32.10;37.70
64634;DHT22;51043;52.406;9.690;2023-06-14T10:16:47;32.20;37.30
64634;DHT22;51043;52.406;9.690;2023-06-14T10:19:20;32.70;37.00
64634;DHT22;51043;52.406;9.690;2023-06-14T10:21:57;32.20;36.90
64634;DHT22;51043;52.406;9.690;2023-06-14T10:24:32;31.60;38.60
64634;DHT22;51043;52.406;9.690;2023-06-14T10:27:03;31.40;39.40
64634;DHT22;51043;52.406;9.690;2023-06-14T10:30:02;31.90;38.10
64634;DHT22;51043;52.406;9.690;2023-06-14T10:32:32;32.60;38.40
64634;DHT22;51043;52.406;9.690;2023-06-14T10:35:06;32.60;37.30
64634;DHT22;51043;52.406;9.690;2023-06-14T10:37:36;31.80;38.40
64634;DHT22;51043;52.406;9.690;2023-06-14T10:40:06;30.70;38.80
64634;DHT22;51043;52.406;9.690;2023-06-14T10:42:35;29.50;40.60
64634;DHT22;51043;52.406;9.690;2023-06-14T10:45:04;28.80;42.60
64634;DHT22;51043;52.406;9.690;2023-06-14T10:47:33;28.30;43.40
64634;DHT22;51043;52.406;9.690;2023-06-14T10:50:07;28.10;43.90
64634;DHT22;51043;52.406;9.690;2023-06-14T10:52:40;28.20;43.60
64634;DHT22;51043;52.406;9.690;2023-06-14T10:55:12;29.20;42.40
64634;DHT22;51043;52.406;9.690;2023-06-14T10:57:43;28.90;42.60
64634;DHT22;51043;52.406;9.690;2023-06-14T11:00:17;27.70;43.60
64634;DHT22;51043;52.406;9.690;2023-06-14T11:05:51;27.00;46.40
64634;DHT22;51043;52.406;9.690;2023-06-14T11:08:53;27.00;46.20
64634;DHT22;51043;52.406;9.690;2023-06-14T11:11:30;27.40;44.70
64634;DHT22;51043;52.406;9.690;2023-06-14T11:14:00;26.70;45.40
64634;DHT22;51043;52.406;9.690;2023-06-14T11:16:30;25.90;47.20
64634;DHT22;51043;52.406;9.690;2023-06-14T11:19:01;25.60;47.50
64634;DHT22;51043;52.406;9.690;2023-06-14T11:21:32;25.60;48.50
64634;DHT22;51043;52.406;9.690;2023-06-14T11:24:00;26.60;48.60
64634;DHT22;51043;52.406;9.690;2023-06-14T11:26:31;27.00;46.10
64634;DHT22;51043;52.406;9.690;2023-06-14T11:29:04;27.00;46.10
64634;DHT22;51043;52.406;9.690;2023-06-14T11:31:32;27.10;46.60
64634;DHT22;51043;52.406;9.690;2023-06-14T11:34:01;28.00;45.50
64634;DHT22;51043;52.406;9.690;2023-06-14T11:36:34;28.00;44.20
64634;DHT22;51043;52.406;9.690;2023-06-14T11:39:04;28.20;44.40
64634;DHT22;51043;52.406;9.690;2023-06-14T11:41:36;28.90;43.20
64634;DHT22;51043;52.406;9.690;2023-06-14T11:44:06;29.50;42.00
64634;DHT22;51043;52.406;9.690;2023-06-14T11:46:35;28.90;42.50
64634;DHT22;51043;52.406;9.690;2023-06-14T11:49:04;28.70;44.10
64634;DHT22;51043;52.406;9.690;2023-06-14T11:51:35;30.30;43.10
64634;DHT22;51043;52.406;9.690;2023-06-14T11:54:05;31.20;40.60
64634;DHT22;51043;52.406;9.690;2023-06-14T11:56:34;31.20;39.40
64634;DHT22;51043;52.406;9.690;2023-06-14T11:59:03;30.70;40.20
64634;DHT22;51043;52.406;9.690;2023-06-14T12:01:35;29.70;42.30
64634;DHT22;51043;52.406;9.690;2023-06-14T12:04:03;28.90;42.70
64634;DHT22;51043;52.406;9.690;2023-06-14T12:06:32;27.90;44.20
64634;DHT22;51043;52.406;9.690;2023-06-14T12:09:07;27.20;45.80
64634;DHT22;51043;52.406;9.690;2023-06-14T12:11:40;26.80;47.70
64634;DHT22;51043;52.406;9.690;2023-06-14T12:14:10;28.00;47.00
64634;DHT22;51043;52.406;9.690;2023-06-14T12:16:39;29.80;43.40
64634;DHT22;51043;52.406;9.690;2023-06-14T12:19:13;31.70;41.00
64634;DHT22;51043;52.406;9.690;2023-06-14T12:21:46;33.80;38.70
64634;DHT22;51043;52.406;9.690;2023-06-14T12:24:17;35.40;36.00
64634;DHT22;51043;52.406;9.690;2023-06-14T12:26:45;35.20;35.40
64634;DHT22;51043;52.406;9.690;2023-06-14T12:29:14;34.00;36.90
64634;DHT22;51043;52.406;9.690;2023-06-14T12:31:42;33.50;37.50
64634;DHT22;51043;52.406;9.690;2023-06-14T12:34:10;33.00;38.60
64634;DHT22;51043;52.406;9.690;2023-06-14T12:36:38;33.20;37.20
64634;DHT22;51043;52.406;9.690;2023-06-14T12:39:10;32.10;38.70
64634;DHT22;51043;52.406;9.690;2023-06-14T12:41:40;31.10;41.10
64634;DHT22;51043;52.406;9.690;2023-06-14T12:44:10;30.10;42.30
64634;DHT22;51043;52.406;9.690;2023-06-14T12:46:38;29.20;44.00
64634;DHT22;51043;52.406;9.690;2023-06-14T12:49:08;28.40;45.30
64634;DHT22;51043;52.406;9.690;2023-06-14T12:51:38;27.70;46.40
64634;DHT22;51043;52.406;9.690;2023-06-14T12:54:06;27.30;47.10
64634;DHT22;51043;52.406;9.690;2023-06-14T12:56:34;27.20;48.10
64634;DHT22;51043;52.406;9.690;2023-06-14T12:59:05;27.80;47.60
64634;DHT22;51043;52.406;9.690;2023-06-14T13:01:34;28.20;46.30
64634;DHT22;51043;52.406;9.690;2023-06-14T13:04:04;28.00;45.60
64634;DHT22;51043;52.406;9.690;2023-06-14T13:06:33;29.00;44.90
64634;DHT22;51043;52.406;9.690;2023-06-14T13:09:02;30.60;42.40
64634;DHT22;51043;52.406;9.690;2023-06-14T13:11:32;32.30;41.30
64634;DHT22;51043;52.406;9.690;2023-06-14T13:14:00;33.30;38.60
64634;DHT22;51043;52.406;9.690;2023-06-14T13:16:36;34.00;37.90
64634;DHT22;51043;52.406;9.690;2023-06-14T13:19:04;34.80;38.00
64634;DHT22;51043;52.406;9.690;2023-06-14T13:21:32;36.20;34.10
64634;DHT22;51043;52.406;9.690;2023-06-14T13:24:01;36.30;34.30
64634;DHT22;51043;52.406;9.690;2023-06-14T13:26:33;36.20;33.40
64634;DHT22;51043;52.406;9.690;2023-06-14T13:29:05;35.10;34.40
64634;DHT22;51043;52.406;9.690;2023-06-14T13:31:33;33.50;35.00
64634;DHT22;51043;52.406;9.690;2023-06-14T13:34:04;32.70;36.60
64634;DHT22;51043;52.406;9.690;2023-06-14T13:36:32;33.50;37.20
64634;DHT22;51043;52.406;9.690;2023-06-14T13:39:00;33.90;35.30
64634;DHT22;51043;52.406;9.690;2023-06-14T13:41:31;32.80;36.20
64634;DHT22;51043;52.406;9.690;2023-06-14T13:44:02;31.10;37.90
64634;DHT22;51043;52.406;9.690;2023-06-14T13:46:31;29.40;40.40
64634;DHT22;51043;52.406;9.690;2023-06-14T13:49:00;28.50;42.10
64634;DHT22;51043;52.406;9.690;2023-06-14T13:51:32;27.90;42.90
64634;DHT22;51043;52.406;9.690;2023-06-14T13:54:01;27.40;43.80
64634;DHT22;51043;52.406;9.690;2023-06-14T13:56:33;27.40;43.50
64634;DHT22;51043;52.406;9.690;2023-06-14T13:59:01;27.80;44.40
64634;DHT22;51043;52.406;9.690;2023-06-14T14:01:31;28.60;43.70
64634;DHT22;51043;52.406;9.690;2023-06-14T14:04:00;29.00;43.10
64634;DHT22;51043;52.406;9.690;2023-06-14T14:06:32;29.50;41.70
64634;DHT22;51043;52.406;9.690;2023-06-14T14:09:06;30.10;40.60
64634;DHT22;51043;52.406;9.690;2023-06-14T14:11:35;30.50;41.30
64634;DHT22;51043;52.406;9.690;2023-06-14T14:14:06;30.80;41.40
64634;DHT22;51043;52.406;9.690;2023-06-14T14:16:35;30.40;40.30
64634;DHT22;51043;52.406;9.690;2023-06-14T14:19:05;30.60;40.40
64634;DHT22;51043;52.406;9.690;2023-06-14T14:21:35;31.40;40.00
64634;DHT22;51043;52.406;9.690;2023-06-14T14:24:07;32.00;38.90
64634;DHT22;51043;52.406;9.690;2023-06-14T14:26:38;32.60;38.00
64634;DHT22;51043;52.406;9.690;2023-06-14T14:29:08;33.10;37.20
64634;DHT22;51043;52.406;9.690;2023-06-14T14:31:41;34.20;36.10
64634;DHT22;51043;52.406;9.690;2023-06-14T14:34:09;34.90;34.40
64634;DHT22;51043;52.406;9.690;2023-06-14T14:36:38;35.50;33.60
64634;DHT22;51043;52.406;9.690;2023-06-14T14:39:09;35.40;33.40
64634;DHT22;51043;52.406;9.690;2023-06-14T14:41:37;35.60;33.00
64634;DHT22;51043;52.406;9.690;2023-06-14T14:44:08;36.40;33.20
64634;DHT22;51043;52.406;9.690;2023-06-14T14:46:36;36.80;32.10
64634;DHT22;51043;52.406;9.690;2023-06-14T14:49:05;36.70;32.00
64634;DHT22;51043;52.406;9.690;2023-06-14T14:51:33;36.40;32.00
64634;DHT22;51043;52.406;9.690;2023-06-14T14:54:05;36.10;33.10
64634;DHT22;51043;52.406;9.690;2023-06-14T14:56:34;36.10;33.00
64634;DHT22;51043;52.406;9.690;2023-06-14T14:59:04;36.50;31.90
64634;DHT22;51043;52.406;9.690;2023-06-14T15:01:32;34.90;33.40
64634;DHT22;51043;52.406;9.690;2023-06-14T15:04:04;32.50;35.60
64634;DHT22;51043;52.406;9.690;2023-06-14T15:06:32;30.70;39.20
64634;DHT22;51043;52.406;9.690;2023-06-14T15:09:05;29.30;41.30
64634;DHT22;51043;52.406;9.690;2023-06-14T15:11:34;28.00;42.60
64634;DHT22;51043;52.406;9.690;2023-06-14T15:14:02;27.60;44.50
64634;DHT22;51043;52.406;9.690;2023-06-14T15:16:32;27.20;44.80
64634;DHT22;51043;52.406;9.690;2023-06-14T15:19:00;27.30;45.00
64634;DHT22;51043;52.406;9.690;2023-06-14T15:21:32;27.40;44.90
64634;DHT22;51043;52.406;9.690;2023-06-14T15:24:00;27.50;44.10
64634;DHT22;51043;52.406;9.690;2023-06-14T15:26:30;27.50;43.80
64634;DHT22;51043;52.406;9.690;2023-06-14T15:29:01;27.50;43.80
64634;DHT22;51043;52.406;9.690;2023-06-14T15:31:36;27.40;44.60
64634;DHT22;51043;52.406;9.690;2023-06-14T15:34:07;27.30;44.70
64634;DHT22;51043;52.406;9.690;2023-06-14T15:36:35;27.50;44.00
64634;DHT22;51043;52.406;9.690;2023-06-14T15:39:12;27.80;43.60
64634;DHT22;51043;52.406;9.690;2023-06-14T15:41:42;28.30;42.20
64634;DHT22;51043;52.406;9.690;2023-06-14T15:44:10;28.90;41.40
64634;DHT22;51043;52.406;9.690;2023-06-14T15:46:38;29.30;40.90
64634;DHT22;51043;52.406;9.690;2023-06-14T15:49:09;29.10;39.90
64634;DHT22;51043;52.406;9.690;2023-06-14T15:51:37;28.20;41.50
64634;DHT22;51043;52.406;9.690;2023-06-14T15:54:08;27.50;43.20